Main page
METAR-TAF:

METAR-TAF

Airports :

Uberlândia Airport

Uberlândia, Minas Gerais, Brazil

latitude: 18-53S, longitude: 048-14W, elevation: 943 m

Current weather observation

The report was made 3 hours and 0 minutes ago, at 04:00 UTC
Wind 5 kt from the East
Temperature 19°C
Humidity 78%
Pressure 1017 hPa
Visibility 10 km or more
no clouds below 1500 m and no cumulonimbus

METAR: SBUL 210400Z 08005KT CAVOK 19/15 Q1017

Time: 05:00 (07:00 UTC)

Forecast

The report was made 4 hours and 40 minutes ago, at 02:20 UTC
Forecast valid from 21 at 06 UTC to 21 at 18 UTC
Wind 7 kt from the East/Northeast
Visibility 10 km or more
no clouds below 1500 m and no cumulonimbus
Becoming
from 21 at 12 UTC to 21 at 14 UTC
Scattered clouds at a height of 3000 ft
Becoming
from 21 at 15 UTC to 21 at 17 UTC
Scattered clouds at a height of 3500 ft
Few clouds at a height of 4500 ft, Towering cumulus.
rain showers

TAF: SBUL 210220Z 2106/2118 07007KT CAVOK TN18/2109Z TX28/2117Z BECMG 2112/2114 SCT030 BECMG 2115/2117 SHRA SCT035 FEW045TCU RMK PGG

Weather observations and forecasts of more than 4000 airports (METAR and TAF reports).

The available stations are represented by yellow and red dots on the map.

Hover mouse over dot to see the name of the station.

Then click to see weather observations and forecasts.

To change the map : click on the green buttons with a black cross to zoom in, on the green button with a dash to zoom out, or on the green arrows for adjacent maps.


METAR-TAF: